Axtel, Kentucky
Current Conditions -  °F | °C
As of 10:58 PM on Saturday 25 Oct 2014 (Local Time) from KFTK Reporting Station
Clear Clear  
Wind Chill: 57°   Ceiling: Unl
Heat Index: 57°   Visibility: 10mi
Dew Point: 53°   Wind: 7mph
Humidity: 85%   Direction: 250°WSW
Pressure: 29.97"   Gusts: NA
Location:  37.7834°N, 86.4612°W
Report Text: KFTK 260358Z AUTO 25006KT 10SM CLR 14/12 A2997 RMK AO2 SLP149 T01410117
Loading
Personal Weather Stations






























Interactive Weather Map
Tropical Storm Tracking
New forecast layout! Learn more

10-Day Weather Forecast

Advertisements
Track Severe Weather on mobile